createdAt,value
2018-09-24T00:02:12.434Z,93.59
2018-09-24T00:04:41.382Z,93.39
2018-09-24T00:07:10.296Z,94.64
2018-09-24T00:09:51.543Z,94.55
2018-09-24T00:12:20.435Z,94.29
2018-09-24T00:14:49.439Z,94.03
2018-09-24T00:17:18.389Z,94.14
2018-09-24T00:19:47.561Z,93.64
2018-09-24T00:22:16.498Z,94.75
2018-09-24T00:24:45.459Z,94.03
2018-09-24T00:27:16.409Z,93.76
2018-09-24T00:29:45.317Z,94.04
2018-09-24T00:32:14.587Z,93.62
2018-09-24T00:34:43.792Z,94.86
2018-09-24T00:37:19.936Z,94.38
2018-09-24T00:39:49.862Z,94.67
2018-09-24T00:42:18.782Z,95.45
2018-09-24T00:44:47.675Z,95.57
2018-09-24T00:47:16.561Z,95.67
2018-09-24T00:49:47.578Z,95.18
2018-09-24T00:52:22.005Z,95.73
2018-09-24T00:54:55.306Z,95.35
2018-09-24T00:57:24.194Z,96.02
2018-09-24T00:59:53.286Z,96.15
2018-09-24T01:02:22.180Z,95.74
2018-09-24T01:05:06.294Z,95.65
2018-09-24T01:07:35.194Z,94.65
2018-09-24T01:10:04.134Z,95.52
2018-09-24T01:12:33.049Z,95.29
2018-09-24T01:15:02.172Z,94.95
2018-09-24T01:17:31.292Z,94.34
2018-09-24T01:20:00.202Z,94.58
2018-09-24T01:22:34.810Z,95.22
2018-09-24T01:25:04.144Z,95.32
2018-09-24T01:27:39.089Z,94.48
2018-09-24T01:30:31.082Z,95.09
2018-09-24T01:33:00.023Z,94.36
2018-09-24T01:35:41.696Z,94.68
2018-09-24T01:38:24.385Z,93.83
2018-09-24T01:40:53.239Z,95.20
2018-09-24T01:43:22.181Z,93.99
2018-09-24T01:45:52.191Z,93.69
2018-09-24T01:48:21.100Z,93.91
2018-09-24T01:50:50.000Z,94.13
2018-09-24T01:53:18.918Z,94.15
2018-09-24T01:55:50.736Z,93.99
2018-09-24T01:58:19.828Z,92.98
2018-09-24T02:00:58.434Z,93.36
2018-09-24T02:03:34.436Z,92.73
2018-09-24T02:06:04.099Z,93.29
2018-09-24T02:08:33.464Z,93.66
2018-09-24T02:11:08.279Z,93.38
2018-09-24T02:13:46.083Z,93.54
2018-09-24T02:16:15.321Z,93.58
2018-09-24T02:18:44.590Z,94.04
2018-09-24T02:21:13.533Z,94.71
2018-09-24T02:23:42.609Z,93.91
2018-09-24T02:26:13.597Z,93.32
2018-09-24T02:28:46.953Z,93.62
2018-09-24T02:31:15.869Z,93.00
2018-09-24T02:33:44.723Z,92.40
2018-09-24T02:36:13.800Z,93.56
2018-09-24T02:38:48.482Z,92.97
2018-09-24T02:41:17.388Z,93.12
2018-09-24T02:43:46.367Z,93.11
2018-09-24T02:46:15.397Z,93.51
2018-09-24T02:48:44.296Z,93.20
2018-09-24T02:51:16.752Z,92.81
2018-09-24T02:53:45.654Z,92.44
2018-09-24T02:56:21.041Z,92.54
2018-09-24T02:58:49.950Z,92.02
2018-09-24T03:01:19.021Z,92.98
2018-09-24T03:03:52.934Z,93.44
2018-09-24T03:06:21.839Z,92.71
2018-09-24T03:08:50.719Z,93.05
2018-09-24T03:11:19.629Z,92.89
2018-09-24T03:13:48.593Z,92.99
2018-09-24T03:16:17.508Z,93.55
2018-09-24T03:18:55.117Z,93.25
2018-09-24T03:21:24.185Z,93.66
2018-09-24T03:23:53.183Z,93.58
2018-09-24T03:26:22.211Z,92.93
2018-09-24T03:28:52.157Z,93.94
2018-09-24T03:31:21.048Z,93.40
2018-09-24T03:33:50.083Z,94.00
2018-09-24T03:36:19.048Z,93.77
2018-09-24T03:38:48.134Z,93.15
2018-09-24T03:41:17.749Z,93.15
2018-09-24T03:43:46.911Z,92.93
2018-09-24T03:46:15.879Z,92.90
2018-09-24T03:48:44.826Z,93.03
2018-09-24T03:51:14.935Z,93.23
2018-09-24T03:53:43.861Z,93.67
2018-09-24T03:56:16.029Z,93.24
2018-09-24T03:58:48.680Z,93.59
2018-09-24T04:01:18.777Z,93.29
2018-09-24T04:03:47.777Z,93.53
2018-09-24T04:06:26.309Z,93.01
2018-09-24T04:09:00.655Z,93.54
2018-09-24T04:11:37.082Z,93.28
2018-09-24T04:14:11.226Z,93.63
2018-09-24T04:16:58.491Z,93.69
2018-09-24T04:19:34.895Z,93.70
2018-09-24T04:22:14.730Z,92.18
2018-09-24T04:24:49.998Z,93.12
2018-09-24T04:27:24.493Z,93.01
2018-09-24T04:30:02.157Z,92.79
2018-09-24T04:32:40.981Z,92.56
2018-09-24T04:35:15.643Z,93.22
2018-09-24T04:37:50.042Z,93.29
2018-09-24T04:40:24.296Z,92.89
2018-09-24T04:42:58.893Z,92.75
2018-09-24T04:45:35.247Z,93.27
2018-09-24T04:48:09.582Z,93.19
2018-09-24T04:50:47.014Z,92.78
2018-09-24T04:53:23.200Z,92.73
2018-09-24T04:55:57.377Z,92.75
2018-09-24T04:58:31.699Z,93.32
2018-09-24T05:01:05.924Z,92.89
2018-09-24T05:03:41.302Z,93.19
2018-09-24T05:06:16.762Z,93.67
2018-09-24T05:08:50.908Z,93.02
2018-09-24T05:11:30.073Z,92.85
2018-09-24T05:14:11.794Z,92.74
2018-09-24T05:16:46.102Z,92.84
2018-09-24T05:19:20.533Z,92.60
2018-09-24T05:21:54.618Z,93.05
2018-09-24T05:24:33.589Z,93.09
2018-09-24T05:27:07.867Z,92.83
2018-09-24T05:29:42.264Z,92.42
2018-09-24T05:32:16.522Z,92.38
2018-09-24T05:34:57.973Z,92.16
2018-09-24T05:37:34.158Z,93.23
2018-09-24T05:40:08.513Z,93.10
2018-09-24T05:42:43.842Z,92.98
2018-09-24T05:45:18.369Z,92.64
2018-09-24T05:48:00.007Z,92.35
2018-09-24T05:50:39.592Z,92.66
2018-09-24T05:53:13.641Z,92.13
2018-09-24T05:55:51.616Z,91.52
2018-09-24T05:58:31.890Z,91.88
2018-09-24T06:01:06.151Z,92.27
2018-09-24T06:03:40.486Z,91.80
2018-09-24T06:06:20.419Z,91.76
2018-09-24T06:08:55.799Z,91.32
2018-09-24T06:11:31.253Z,90.64
2018-09-24T06:14:09.868Z,91.87
2018-09-24T06:16:44.163Z,90.90
2018-09-24T06:19:18.565Z,90.41
2018-09-24T06:21:52.905Z,91.00
2018-09-24T06:24:28.259Z,90.88
2018-09-24T06:27:04.602Z,90.92
2018-09-24T06:29:44.776Z,91.22
2018-09-24T06:32:19.176Z,90.39
2018-09-24T06:34:59.673Z,89.31
2018-09-24T06:37:33.751Z,90.96
2018-09-24T06:43:03.177Z,89.22
2018-09-24T06:45:41.471Z,88.86
2018-09-24T06:48:15.724Z,89.32
2018-09-24T06:50:49.956Z,89.81
2018-09-24T06:53:24.339Z,89.19
2018-09-24T06:55:58.651Z,88.01
2018-09-24T06:58:43.867Z,88.81
2018-09-24T07:01:23.904Z,88.72
2018-09-24T07:04:04.784Z,87.66
2018-09-24T07:06:39.148Z,87.57
2018-09-24T07:09:14.131Z,88.16
2018-09-24T07:11:48.566Z,88.74
2018-09-24T07:14:31.244Z,88.52
2018-09-24T07:17:05.479Z,88.08
2018-09-24T07:19:50.684Z,88.55
2018-09-24T07:22:25.074Z,87.83
2018-09-24T07:25:01.377Z,87.42
2018-09-24T07:27:43.204Z,87.37
2018-09-24T07:30:18.873Z,86.67
2018-09-24T07:32:58.825Z,86.75
2018-09-24T07:35:38.660Z,86.35
2018-09-24T07:38:15.978Z,87.41
2018-09-24T07:41:00.577Z,87.02
2018-09-24T07:43:39.715Z,86.82
2018-09-24T07:46:14.134Z,85.63
2018-09-24T07:48:53.929Z,85.84
2018-09-24T07:51:34.587Z,86.11
2018-09-24T07:54:14.340Z,85.82
2018-09-24T07:56:49.642Z,85.67
2018-09-24T07:59:24.033Z,85.29
2018-09-24T08:01:58.390Z,84.69
2018-09-24T08:04:38.741Z,84.79
2018-09-24T08:07:14.125Z,84.97
2018-09-24T08:09:55.487Z,84.25
2018-09-24T08:12:47.604Z,83.91
2018-09-24T08:15:23.816Z,82.76
2018-09-24T08:17:58.083Z,82.64
2018-09-24T08:20:32.417Z,83.69
2018-09-24T08:23:23.534Z,84.09
2018-09-24T08:26:03.241Z,83.82
2018-09-24T08:28:38.432Z,83.55
2018-09-24T08:31:12.816Z,83.35
2018-09-24T08:33:47.155Z,82.28
2018-09-24T08:36:25.928Z,82.28
2018-09-24T08:39:08.240Z,81.34
2018-09-24T08:41:46.951Z,81.37
2018-09-24T08:44:21.217Z,80.51
2018-09-24T08:46:56.592Z,80.36
2018-09-24T08:49:31.868Z,79.37
2018-09-24T08:52:07.142Z,80.56
2018-09-24T08:54:46.495Z,80.25
2018-09-24T08:57:20.728Z,80.07
2018-09-24T08:59:58.143Z,80.28
2018-09-24T09:02:38.677Z,78.46
2018-09-24T09:05:18.958Z,78.86
2018-09-24T09:07:55.275Z,75.47
2018-09-24T09:10:29.458Z,75.59
2018-09-24T09:13:05.761Z,74.62
2018-09-24T09:15:41.014Z,76.08
2018-09-24T09:18:15.402Z,75.27
2018-09-24T09:20:49.609Z,75.26
2018-09-24T09:23:29.844Z,74.19
2018-09-24T09:26:07.225Z,75.63
2018-09-24T09:28:45.482Z,74.50
2018-09-24T09:31:19.826Z,74.59
2018-09-24T09:33:55.194Z,78.36
2018-09-24T09:36:31.534Z,73.80
2018-09-24T09:39:05.757Z,73.44
2018-09-24T09:41:41.055Z,72.41
2018-09-24T09:44:15.293Z,71.40
2018-09-24T09:47:00.319Z,70.72
2018-09-24T09:49:35.622Z,70.07
2018-09-24T09:52:13.797Z,70.05
2018-09-24T09:54:50.161Z,70.17
2018-09-24T09:57:26.561Z,69.54
2018-09-24T10:00:18.503Z,70.54
2018-09-24T10:02:54.780Z,68.96
2018-09-24T10:05:34.243Z,70.14
2018-09-24T10:08:18.594Z,70.43
2018-09-24T10:11:00.641Z,68.54
2018-09-24T10:13:35.085Z,69.24
2018-09-24T10:16:12.772Z,67.23
2018-09-24T10:18:48.242Z,68.00
2018-09-24T10:21:23.688Z,66.87
2018-09-24T10:23:58.911Z,67.20
2018-09-24T10:26:38.477Z,68.47
2018-09-24T10:29:27.917Z,67.87
2018-09-24T10:32:08.977Z,69.35
2018-09-24T10:34:43.393Z,67.87
2018-09-24T10:37:21.669Z,67.56
2018-09-24T10:39:57.037Z,67.40
2018-09-24T10:42:33.270Z,68.02
2018-09-24T10:45:07.560Z,67.24
2018-09-24T10:47:42.926Z,66.68
2018-09-24T10:50:30.418Z,66.35
2018-09-24T10:53:08.372Z,67.42
2018-09-24T10:55:44.801Z,64.68
2018-09-24T10:58:20.022Z,64.72
2018-09-24T11:00:56.504Z,64.33
2018-09-24T11:03:36.246Z,63.53
2018-09-24T11:06:13.655Z,63.73
2018-09-24T11:08:52.481Z,63.19
2018-09-24T11:11:26.828Z,61.01
2018-09-24T11:14:01.077Z,62.13
2018-09-24T11:16:42.177Z,62.18
2018-09-24T11:19:16.187Z,62.13
2018-09-24T11:21:52.508Z,62.94
2018-09-24T11:24:33.838Z,61.14
2018-09-24T11:27:08.965Z,60.93
2018-09-24T11:29:48.767Z,61.63
2018-09-24T11:32:24.016Z,62.00
2018-09-24T11:35:10.314Z,61.18
2018-09-24T11:37:50.064Z,60.42
2018-09-24T11:40:31.170Z,61.44
2018-09-24T11:43:12.012Z,61.86
2018-09-24T11:45:47.330Z,62.20
2018-09-24T11:48:27.357Z,61.79
2018-09-24T11:51:08.727Z,61.10
2018-09-24T11:53:42.966Z,61.40
2018-09-24T11:56:30.053Z,61.94
2018-09-24T11:59:08.025Z,62.83
2018-09-24T12:01:43.281Z,63.87
2018-09-24T12:04:17.488Z,63.65
2018-09-24T12:06:56.416Z,63.84
2018-09-24T12:09:34.503Z,64.67
2018-09-24T12:12:28.172Z,64.89
2018-09-24T12:15:02.543Z,62.49
2018-09-24T12:17:37.855Z,61.56
2018-09-24T12:20:24.789Z,60.74
2018-09-24T12:23:02.889Z,59.55
2018-09-24T12:25:40.864Z,59.06
2018-09-24T12:28:20.941Z,58.14
2018-09-24T12:31:01.049Z,59.33
2018-09-24T12:33:39.332Z,59.21
2018-09-24T12:36:15.747Z,60.20
2018-09-24T12:38:50.085Z,61.24
2018-09-24T12:41:24.388Z,61.43
2018-09-24T12:43:58.535Z,61.50
2018-09-24T12:46:39.500Z,62.07
2018-09-24T12:49:13.788Z,62.98
2018-09-24T12:51:53.874Z,63.60
2018-09-24T12:54:34.384Z,64.01
2018-09-24T12:57:10.690Z,65.34
2018-09-24T12:59:47.132Z,65.30
2018-09-24T13:02:21.220Z,64.71
2018-09-24T13:04:55.502Z,66.00
2018-09-24T13:07:29.667Z,64.09
2018-09-24T13:10:04.123Z,64.82
2018-09-24T13:12:43.065Z,64.71
2018-09-24T13:15:25.269Z,64.85
2018-09-24T13:18:00.576Z,63.97
2018-09-24T13:20:35.866Z,63.11
2018-09-24T13:23:10.287Z,61.52
2018-09-24T13:25:48.090Z,62.71
2018-09-24T13:28:28.847Z,62.23
2018-09-24T13:31:04.086Z,62.60
2018-09-24T13:33:39.500Z,61.35
2018-09-24T13:36:18.352Z,61.20
2018-09-24T13:38:57.437Z,62.23
2018-09-24T13:41:35.510Z,62.12
2018-09-24T13:44:11.737Z,61.29
2018-09-24T13:46:46.052Z,61.18
2018-09-24T13:49:30.411Z,60.69
2018-09-24T13:52:08.812Z,60.96
2018-09-24T13:54:44.148Z,61.44
2018-09-24T13:57:23.984Z,60.52
2018-09-24T13:59:59.252Z,60.82
2018-09-24T14:02:37.697Z,59.61
2018-09-24T14:05:12.219Z,58.30
2018-09-24T14:07:47.483Z,57.91
2018-09-24T14:10:28.191Z,56.21
2018-09-24T14:13:02.638Z,55.66
2018-09-24T14:15:36.889Z,56.62
2018-09-24T14:18:11.195Z,55.03
2018-09-24T14:20:46.463Z,55.03
2018-09-24T14:23:20.711Z,55.28
2018-09-24T14:25:56.158Z,55.74
2018-09-24T14:28:30.341Z,55.62
2018-09-24T14:31:10.202Z,56.53
2018-09-24T14:33:45.313Z,56.72
2018-09-24T14:36:20.647Z,57.87
2018-09-24T14:38:58.424Z,58.46
2018-09-24T14:41:36.368Z,59.28
2018-09-24T14:44:10.775Z,57.89
2018-09-24T14:46:51.996Z,58.40
2018-09-24T14:49:26.344Z,57.48
2018-09-24T14:52:06.253Z,58.43
2018-09-24T14:54:42.584Z,57.64
2018-09-24T14:57:18.036Z,58.10
2018-09-24T14:59:54.341Z,57.87
2018-09-24T15:02:33.956Z,57.55
2018-09-24T15:05:10.294Z,57.84
2018-09-24T15:07:44.774Z,58.98
2018-09-24T15:10:20.214Z,59.81
2018-09-24T15:12:54.613Z,58.93
2018-09-24T15:15:31.020Z,59.67
2018-09-24T15:18:10.440Z,64.96
2018-09-24T15:20:48.393Z,67.86
2018-09-24T15:23:26.471Z,69.95
2018-09-24T15:26:02.894Z,70.60
2018-09-24T15:28:40.953Z,70.77
2018-09-24T15:31:19.029Z,71.76
2018-09-24T15:33:54.332Z,73.10
2018-09-24T15:36:36.208Z,72.49
2018-09-24T15:39:22.450Z,73.68
2018-09-24T15:42:03.355Z,74.07
2018-09-24T15:44:38.665Z,74.18
2018-09-24T15:47:15.096Z,73.31
2018-09-24T15:49:56.875Z,74.45
2018-09-24T15:52:37.780Z,74.46
2018-09-24T15:55:15.353Z,72.47
2018-09-24T15:57:50.740Z,69.47
2018-09-24T16:00:25.143Z,68.76
2018-09-24T16:03:06.470Z,69.34
2018-09-24T16:05:41.720Z,69.87
2018-09-24T16:08:24.500Z,70.26
2018-09-24T16:11:06.486Z,68.20
2018-09-24T16:13:43.019Z,69.46
2018-09-24T16:16:17.392Z,69.83
2018-09-24T16:18:51.743Z,69.41
2018-09-24T16:21:26.966Z,69.67
2018-09-24T16:24:11.683Z,69.48
2018-09-24T16:26:46.123Z,67.51
2018-09-24T16:29:20.345Z,67.65
2018-09-24T16:32:11.743Z,66.38
2018-09-24T16:34:51.572Z,67.09
2018-09-24T16:37:26.019Z,67.76
2018-09-24T16:40:03.577Z,67.82
2018-09-24T16:42:38.180Z,67.38
2018-09-24T16:45:12.807Z,68.14
2018-09-24T16:47:47.231Z,67.06
2018-09-24T16:50:29.411Z,67.25
2018-09-24T16:53:08.843Z,67.46
2018-09-24T16:55:44.152Z,65.83
2018-09-24T16:58:20.379Z,65.66
2018-09-24T17:00:54.653Z,65.97
2018-09-24T17:03:30.000Z,64.71
2018-09-24T17:06:04.201Z,64.21
2018-09-24T17:08:38.495Z,65.77
2018-09-24T17:11:24.221Z,65.01
2018-09-24T17:14:04.974Z,65.92
2018-09-24T17:16:47.500Z,67.04
2018-09-24T17:19:27.641Z,66.08
2018-09-24T17:22:06.879Z,65.15
2018-09-24T17:24:41.211Z,65.95
2018-09-24T17:27:17.835Z,66.20
2018-09-24T17:29:55.983Z,66.62
2018-09-24T17:32:30.301Z,67.61
2018-09-24T17:35:07.957Z,66.43
2018-09-24T17:37:44.112Z,67.03
2018-09-24T17:40:20.407Z,67.35
2018-09-24T17:42:55.753Z,68.11
2018-09-24T17:45:31.268Z,68.21
2018-09-24T17:48:07.577Z,68.23
2018-09-24T17:50:51.706Z,68.03
2018-09-24T17:53:27.965Z,68.26
2018-09-24T17:56:10.465Z,68.97
2018-09-24T17:58:54.362Z,68.76
2018-09-24T18:01:33.993Z,69.73
2018-09-24T18:04:08.312Z,68.87
2018-09-24T18:06:46.174Z,69.72
2018-09-24T18:09:26.193Z,70.10
2018-09-24T18:12:00.327Z,70.53
2018-09-24T18:14:39.608Z,70.66
2018-09-24T18:17:13.940Z,71.11
2018-09-24T18:19:48.370Z,70.38
2018-09-24T18:22:26.602Z,71.92
2018-09-24T18:25:02.899Z,71.28
2018-09-24T18:27:37.195Z,71.53
2018-09-24T18:30:11.309Z,71.40
2018-09-24T18:32:50.263Z,71.78
2018-09-24T18:35:26.678Z,71.20
2018-09-24T18:38:06.104Z,71.19
2018-09-24T18:40:40.381Z,71.96
2018-09-24T18:43:16.781Z,71.78
2018-09-24T18:45:52.299Z,72.64
2018-09-24T18:48:30.563Z,72.31
2018-09-24T18:51:05.916Z,71.66
2018-09-24T18:53:42.195Z,71.23
2018-09-24T18:56:17.579Z,71.61
2018-09-24T18:58:55.042Z,71.52
2018-09-24T19:01:31.395Z,71.26
2018-09-24T19:04:05.778Z,71.04
2018-09-24T19:06:40.079Z,71.58
2018-09-24T19:09:14.616Z,71.13
2018-09-24T19:11:56.205Z,72.62
2018-09-24T19:14:30.486Z,71.01
2018-09-24T19:17:04.893Z,70.79
2018-09-24T19:19:42.894Z,71.31
2018-09-24T19:22:17.350Z,71.78
2018-09-24T19:24:52.917Z,71.56
2018-09-24T19:27:27.210Z,71.80
2018-09-24T19:30:01.466Z,71.65
2018-09-24T19:32:35.999Z,72.19
2018-09-24T19:35:10.334Z,71.54
2018-09-24T19:37:44.666Z,72.17
2018-09-24T19:40:22.750Z,72.47
2018-09-24T19:42:57.317Z,72.76
2018-09-24T19:45:32.632Z,73.31
2018-09-24T19:48:06.952Z,72.82
2018-09-24T19:50:41.298Z,72.96
2018-09-24T19:53:15.693Z,73.01
2018-09-24T19:55:50.004Z,73.54
2018-09-24T19:58:24.339Z,73.84
2018-09-24T20:00:59.874Z,73.19
2018-09-24T20:03:34.284Z,73.73
2018-09-24T20:06:19.514Z,75.62
2018-09-24T20:09:06.406Z,74.93
2018-09-24T20:11:46.523Z,75.45
2018-09-24T20:14:25.947Z,75.01
2018-09-24T20:17:05.923Z,74.57
2018-09-24T20:19:40.293Z,74.42
2018-09-24T20:22:15.580Z,74.48
2018-09-24T20:24:54.207Z,74.20
2018-09-24T20:27:29.675Z,74.62
2018-09-24T20:30:03.958Z,75.55
2018-09-24T20:32:38.366Z,75.09
2018-09-24T20:35:13.030Z,75.48
2018-09-24T20:37:53.537Z,76.29
2018-09-24T20:40:39.366Z,77.57
2018-09-24T20:43:13.644Z,78.03
2018-09-24T20:45:55.274Z,78.14
2018-09-24T20:48:33.749Z,79.15
2018-09-24T20:54:01.819Z,79.01
2018-09-24T20:56:46.029Z,80.63
2018-09-24T20:59:37.069Z,80.50
2018-09-24T21:02:11.387Z,81.06
2018-09-24T21:04:45.733Z,81.56
2018-09-24T21:07:25.521Z,82.31
2018-09-24T21:09:59.963Z,82.20
2018-09-24T21:12:34.247Z,82.56
2018-09-24T21:15:13.013Z,82.45
2018-09-24T21:17:47.339Z,82.44
2018-09-24T21:20:22.557Z,83.35
2018-09-24T21:22:56.987Z,83.05
2018-09-24T21:25:31.265Z,82.76
2018-09-24T21:28:07.428Z,83.34
2018-09-24T21:30:49.714Z,83.17
2018-09-24T21:33:24.034Z,83.70
2018-09-24T21:35:58.342Z,84.12
2018-09-24T21:38:33.812Z,84.05
2018-09-24T21:41:08.207Z,85.23
2018-09-24T21:43:43.565Z,84.61
2018-09-24T21:46:18.267Z,84.85
2018-09-24T21:49:02.082Z,84.28
2018-09-24T21:51:40.559Z,85.01
2018-09-24T21:54:21.003Z,85.28
2018-09-24T21:56:59.371Z,84.83
2018-09-24T21:59:37.352Z,85.59
2018-09-24T22:02:18.606Z,85.54
2018-09-24T22:04:55.968Z,86.30
2018-09-24T22:07:30.310Z,85.18
2018-09-24T22:10:04.764Z,85.44
2018-09-24T22:12:41.206Z,85.77
2018-09-24T22:15:15.541Z,86.51
2018-09-24T22:17:49.869Z,86.23
2018-09-24T22:20:24.098Z,86.34
2018-09-24T22:22:58.649Z,86.67
2018-09-24T22:25:32.945Z,86.40
2018-09-24T22:28:07.227Z,86.27
2018-09-24T22:30:41.538Z,85.94
2018-09-24T22:33:22.833Z,86.31
2018-09-24T22:36:02.856Z,86.81
2018-09-24T22:38:37.287Z,86.90
2018-09-24T22:41:23.412Z,86.30
2018-09-24T22:43:57.820Z,86.61
2018-09-24T22:46:36.064Z,86.69
2018-09-24T22:49:11.500Z,86.45
2018-09-24T22:51:45.822Z,86.42
2018-09-24T22:54:25.992Z,86.22
2018-09-24T22:57:00.256Z,86.23
2018-09-24T22:59:34.819Z,86.64
2018-09-24T23:02:16.502Z,85.81
2018-09-24T23:05:01.367Z,86.13
2018-09-24T23:07:35.803Z,85.69
2018-09-24T23:10:16.110Z,85.55
2018-09-24T23:12:56.206Z,86.22
2018-09-24T23:15:47.211Z,86.89
2018-09-24T23:18:25.943Z,85.74
2018-09-24T23:21:01.226Z,86.29
2018-09-24T23:23:35.566Z,86.49
2018-09-24T23:26:10.044Z,86.13
2018-09-24T23:28:48.308Z,85.11
2018-09-24T23:31:26.221Z,85.53
2018-09-24T23:34:18.688Z,85.68
2018-09-24T23:36:53.018Z,85.75
2018-09-24T23:39:27.169Z,85.78
2018-09-24T23:42:01.306Z,85.96
2018-09-24T23:44:35.613Z,86.36
2018-09-24T23:47:09.898Z,86.54
2018-09-24T23:49:44.372Z,85.97
2018-09-24T23:52:18.543Z,86.71
2018-09-24T23:54:52.903Z,85.55
2018-09-24T23:57:27.157Z,85.54
